Time;durP1;ratioP1;P1;durP2;ratioP2;P2;SDS_P1;SDS_P2;PMS_P1;PMS_P2;Temp;Humidity;BMP_temperature;BMP_pressure;BME280_temperature;BME280_humidity;BME280_pressure;Samples;Min_cycle;Max_cycle;Signal;HPM_P1;HPM_P2
2023/04/05 00:01:57;;;;;;;8.17;3.00;;;;;;;;;;5033300;28;20240;-69
2023/04/05 00:04:22;;;;;;;6.63;2.78;;;;;;;;;;5032268;28;20088;-67
2023/04/05 00:06:51;;;;;;;6.40;2.47;;;;;;;;;;5018742;28;20022;-67
2023/04/05 00:09:17;;;;;;;7.20;2.70;;;;;;;;;;5027618;28;20025;-67
2023/04/05 00:11:42;;;;;;;6.47;2.42;;;;;;;;;;5027972;28;20036;-69
2023/04/05 00:14:08;;;;;;;7.07;2.42;;;;;;;;;;5030933;28;20108;-69
2023/04/05 00:16:35;;;;;;;7.28;2.78;;;;;;;;;;5024653;28;20091;-69
2023/04/05 00:19:00;;;;;;;;;;;;;;;;;;5020621;28;20021;-69
2023/04/05 00:21:26;;;;;;;8.40;2.60;;;;;;;;;;5030458;28;19909;-68
2023/04/05 00:23:52;;;;;;;6.28;2.40;;;;;;;;;;5025368;28;20026;-66
2023/04/05 00:26:17;;;;;;;6.88;2.78;;;;;;;;;;5022398;28;20029;-68
2023/04/05 00:28:42;;;;;;;7.38;2.22;;;;;;;;;;5028718;28;20017;-69
2023/04/05 00:31:08;;;;;;;7.32;2.30;;;;;;;;;;5022211;28;20021;-69
2023/04/05 00:33:33;;;;;;;6.78;2.20;;;;;;;;;;5028296;28;20553;-68
2023/04/05 00:36:07;;;;;;;5.97;2.50;;;;;;;;;;5021682;28;20022;-69
2023/04/05 00:38:32;;;;;;;6.63;2.50;;;;;;;;;;5027336;28;20071;-66
2023/04/05 00:40:57;;;;;;;6.28;2.42;;;;;;;;;;5025452;28;20040;-65
2023/04/05 00:43:22;;;;;;;7.43;2.35;;;;;;;;;;5025151;28;20033;-67
2023/04/05 00:45:47;;;;;;;6.53;2.70;;;;;;;;;;5028107;28;20056;-67
2023/04/05 00:48:13;;;;;;;7.00;2.47;;;;;;;;;;5028907;28;20041;-67
2023/04/05 00:50:40;;;;;;;6.50;2.30;;;;;;;;;;5022861;28;20070;-68
2023/04/05 00:53:05;;;;;;;;;;;;;;;;;;5028415;28;20021;-68
2023/04/05 00:55:32;;;;;;;7.10;2.70;;;;;;;;;;5017736;28;20038;-68
2023/04/05 00:57:58;;;;;;;6.05;2.50;;;;;;;;;;5028101;28;20021;-68
2023/04/05 01:00:23;;;;;;;6.80;2.20;;;;;;;;;;5018130;28;20394;-68
2023/04/05 01:02:51;;;;;;;8.63;2.47;;;;;;;;;;5040781;28;20025;-69
2023/04/05 01:05:37;;;;;;;6.70;2.28;;;;;;;;;;5027986;28;20571;-66
2023/04/05 01:08:35;;;;;;;7.22;2.30;;;;;;;;;;5022960;28;20026;-67
2023/04/05 01:11:02;;;;;;;7.47;2.63;;;;;;;;;;5014741;28;20079;-68
2023/04/05 01:13:28;;;;;;;7.90;2.80;;;;;;;;;;5025349;28;20029;-69
2023/04/05 01:15:54;;;;;;;6.00;2.30;;;;;;;;;;5025868;28;20033;-67
2023/04/05 01:18:20;;;;;;;7.60;2.45;;;;;;;;;;5012214;28;20033;-68
2023/04/05 01:20:52;;;;;;;9.15;2.60;;;;;;;;;;5017135;28;20014;-67
2023/04/05 01:23:36;;;;;;;5.03;2.42;;;;;;;;;;5020393;28;20153;-68
2023/04/05 01:26:23;;;;;;;6.63;2.60;;;;;;;;;;5024554;28;20073;-68
2023/04/05 01:28:57;;;;;;;8.15;2.92;;;;;;;;;;5023305;28;20444;-69
2023/04/05 01:31:22;;;;;;;6.75;2.20;;;;;;;;;;5020390;28;20045;-68
2023/04/05 01:33:51;;;;;;;8.27;2.63;;;;;;;;;;5025146;28;20025;-68
2023/04/05 01:36:22;;;;;;;6.40;2.35;;;;;;;;;;5019765;28;20022;-68
2023/04/05 01:38:48;;;;;;;5.95;2.65;;;;;;;;;;5025897;28;20101;-66
2023/04/05 01:41:14;;;;;;;8.20;2.42;;;;;;;;;;5020204;28;20172;-66
2023/04/05 01:43:39;;;;;;;5.55;2.30;;;;;;;;;;5026805;28;20036;-68
2023/04/05 01:46:04;;;;;;;6.25;2.17;;;;;;;;;;5028968;28;20025;-67
2023/04/05 01:48:29;;;;;;;6.07;2.60;;;;;;;;;;5020440;28;20064;-68
2023/04/05 01:50:54;;;;;;;7.17;2.30;;;;;;;;;;5025269;28;20033;-67
2023/04/05 01:53:20;;;;;;;7.63;2.53;;;;;;;;;;5019347;28;20021;-69
2023/04/05 01:55:45;;;;;;;10.43;2.72;;;;;;;;;;5019789;28;20045;-67
2023/04/05 01:58:10;;;;;;;7.63;2.33;;;;;;;;;;5027878;28;20067;-69
2023/04/05 02:00:36;;;;;;;6.80;2.40;;;;;;;;;;5028107;28;20393;-68
2023/04/05 02:03:01;;;;;;;6.03;2.23;;;;;;;;;;5023559;28;20024;-68
2023/04/05 02:05:26;;;;;;;6.28;2.40;;;;;;;;;;5019914;28;20025;-68
2023/04/05 02:07:51;;;;;;;6.77;2.53;;;;;;;;;;5019370;28;20023;-69
2023/04/05 02:10:16;;;;;;;6.33;2.47;;;;;;;;;;5023957;28;20108;-69
2023/04/05 02:12:42;;;;;;;8.80;2.33;;;;;;;;;;5023572;28;20029;-69
2023/04/05 02:15:07;;;;;;;5.85;2.00;;;;;;;;;;5031327;28;20025;-67
2023/04/05 02:17:38;;;;;;;6.00;2.25;;;;;;;;;;5032206;28;20014;-68
2023/04/05 02:20:06;;;;;;;8.75;2.20;;;;;;;;;;5035528;28;20433;-68
2023/04/05 02:22:31;;;;;;;5.80;2.40;;;;;;;;;;5029368;28;20033;-67
2023/04/05 02:24:56;;;;;;;5.43;2.05;;;;;;;;;;5023973;28;20051;-68
2023/04/05 02:27:22;;;;;;;8.10;2.40;;;;;;;;;;5030419;28;20021;-68
2023/04/05 02:29:47;;;;;;;5.97;2.30;;;;;;;;;;5027438;28;20500;-68
2023/04/05 02:32:12;;;;;;;5.07;2.13;;;;;;;;;;5032508;28;20025;-68
2023/04/05 02:34:40;;;;;;;6.88;2.13;;;;;;;;;;5031414;28;20025;-68
2023/04/05 02:37:05;;;;;;;7.82;2.40;;;;;;;;;;5031606;28;20095;-67
2023/04/05 02:39:30;;;;;;;4.88;1.92;;;;;;;;;;5030883;28;20033;-67
2023/04/05 02:41:56;;;;;;;6.97;2.20;;;;;;;;;;5031785;28;20033;-68
2023/04/05 02:44:21;;;;;;;7.18;2.03;;;;;;;;;;5030376;28;20022;-68
2023/04/05 02:46:46;;;;;;;6.87;2.10;;;;;;;;;;5030438;28;20113;-68
2023/04/05 02:49:11;;;;;;;6.25;2.20;;;;;;;;;;5030581;28;20025;-68
2023/04/05 02:51:37;;;;;;;5.32;2.33;;;;;;;;;;5024122;28;20024;-68
2023/04/05 02:54:02;;;;;;;7.32;2.67;;;;;;;;;;5032563;28;20036;-67
2023/04/05 02:56:28;;;;;;;6.73;2.07;;;;;;;;;;5027537;28;20090;-68
2023/04/05 02:58:54;;;;;;;5.28;2.50;;;;;;;;;;5020552;28;20091;-69
2023/04/05 03:01:19;;;;;;;5.72;2.30;;;;;;;;;;5029404;28;20412;-68
2023/04/05 03:03:44;;;;;;;10.45;3.00;;;;;;;;;;5031457;28;20021;-68
2023/04/05 03:06:09;;;;;;;7.83;2.23;;;;;;;;;;5031842;28;20056;-68
2023/04/05 03:08:38;;;;;;;5.30;2.07;;;;;;;;;;5028017;28;20029;-68
2023/04/05 03:11:06;;;;;;;5.57;2.17;;;;;;;;;;5024196;28;20096;-68
2023/04/05 03:13:31;;;;;;;5.72;2.28;;;;;;;;;;5025912;28;20087;-68
2023/04/05 03:15:56;;;;;;;5.13;2.03;;;;;;;;;;5029779;28;20029;-67
2023/04/05 03:18:24;;;;;;;6.30;2.00;;;;;;;;;;5022727;28;20104;-67
2023/04/05 03:20:55;;;;;;;6.00;2.35;;;;;;;;;;5024862;28;20040;-68
2023/04/05 03:23:20;;;;;;;6.43;2.33;;;;;;;;;;5025079;28;20116;-67
2023/04/05 03:25:45;;;;;;;6.87;2.20;;;;;;;;;;5028088;28;20041;-68
2023/04/05 03:28:11;;;;;;;6.07;2.65;;;;;;;;;;5029950;28;20032;-67
2023/04/05 03:30:36;;;;;;;6.72;2.45;;;;;;;;;;5029140;28;20096;-66
2023/04/05 03:33:01;;;;;;;6.07;2.10;;;;;;;;;;5025102;28;20024;-66
2023/04/05 03:35:27;;;;;;;7.88;2.67;;;;;;;;;;5019478;28;20037;-68
2023/04/05 03:37:53;;;;;;;6.28;2.35;;;;;;;;;;5028603;28;20030;-66
2023/04/05 03:40:18;;;;;;;7.23;2.33;;;;;;;;;;5028368;28;20037;-66
2023/04/05 03:42:44;;;;;;;6.72;2.30;;;;;;;;;;5017214;28;20440;-67
2023/04/05 03:45:09;;;;;;;9.02;2.75;;;;;;;;;;5021618;28;20018;-68
2023/04/05 03:47:34;;;;;;;5.28;2.15;;;;;;;;;;5025859;28;20530;-67
2023/04/05 03:50:01;;;;;;;5.43;2.20;;;;;;;;;;5030055;28;20519;-67
2023/04/05 03:52:26;;;;;;;5.63;2.30;;;;;;;;;;5020023;28;20025;-67
2023/04/05 03:54:51;;;;;;;6.15;2.50;;;;;;;;;;5025366;28;20026;-67
2023/04/05 03:57:17;;;;;;;7.03;2.53;;;;;;;;;;5029065;28;20034;-67
2023/04/05 03:59:42;;;;;;;6.20;2.20;;;;;;;;;;5030737;28;20067;-68
2023/04/05 04:02:07;;;;;;;7.63;2.67;;;;;;;;;;5026387;28;20032;-66
2023/04/05 04:04:32;;;;;;;6.15;2.45;;;;;;;;;;5029274;28;20435;-66
2023/04/05 04:06:57;;;;;;;7.50;2.72;;;;;;;;;;5029263;28;20465;-65
2023/04/05 04:09:22;;;;;;;7.53;2.70;;;;;;;;;;5027433;28;20136;-67
2023/04/05 04:11:48;;;;;;;7.77;2.40;;;;;;;;;;5023577;28;20975;-68
2023/04/05 04:14:13;;;;;;;7.88;2.60;;;;;;;;;;5031266;28;20362;-68
2023/04/05 04:16:38;;;;;;;6.05;2.60;;;;;;;;;;5019722;28;20485;-67
2023/04/05 04:19:03;;;;;;;7.57;2.85;;;;;;;;;;5026840;28;20044;-68
2023/04/05 04:21:31;;;;;;;9.25;2.95;;;;;;;;;;5025905;28;20083;-66
2023/04/05 04:23:56;;;;;;;6.80;2.55;;;;;;;;;;5024585;28;20021;-66
2023/04/05 04:26:27;;;;;;;7.97;2.40;;;;;;;;;;5022735;28;20040;-67
2023/04/05 04:28:52;;;;;;;5.90;2.45;;;;;;;;;;5025384;28;20033;-67
2023/04/05 04:31:20;;;;;;;6.25;2.22;;;;;;;;;;5026393;28;20148;-70
2023/04/05 04:33:45;;;;;;;7.43;2.20;;;;;;;;;;5025188;28;20041;-68
2023/04/05 04:36:12;;;;;;;7.23;2.63;;;;;;;;;;5023321;28;20021;-68
2023/04/05 04:38:41;;;;;;;6.68;2.20;;;;;;;;;;5020805;28;20017;-68
2023/04/05 04:41:06;;;;;;;7.03;2.40;;;;;;;;;;5019542;28;20129;-69
2023/04/05 04:43:36;;;;;;;6.35;2.40;;;;;;;;;;5024963;28;20168;-67
2023/04/05 04:46:05;;;;;;;6.85;2.35;;;;;;;;;;5022618;28;20055;-68
2023/04/05 04:48:32;;;;;;;5.20;2.28;;;;;;;;;;5022799;28;20084;-68
2023/04/05 04:50:57;;;;;;;10.15;2.35;;;;;;;;;;5021923;28;20067;-69
2023/04/05 04:53:22;;;;;;;6.95;2.60;;;;;;;;;;5017821;28;20056;-68
2023/04/05 04:55:48;;;;;;;6.97;2.92;;;;;;;;;;5022708;28;20025;-70
2023/04/05 04:58:14;;;;;;;7.18;2.72;;;;;;;;;;5011314;28;20034;-69
2023/04/05 05:00:43;;;;;;;8.48;2.83;;;;;;;;;;5023849;28;20017;-67
2023/04/05 05:03:10;;;;;;;7.35;2.80;;;;;;;;;;5021585;28;20025;-67
2023/04/05 05:05:35;;;;;;;7.60;2.67;;;;;;;;;;5025933;28;20059;-68
2023/04/05 05:08:00;;;;;;;6.30;2.53;;;;;;;;;;5021359;28;20117;-68
2023/04/05 05:10:25;;;;;;;9.45;2.88;;;;;;;;;;5015267;28;20925;-68
2023/04/05 05:12:51;;;;;;;6.07;2.85;;;;;;;;;;5026673;28;20060;-67
2023/04/05 05:15:17;;;;;;;7.35;3.13;;;;;;;;;;5025199;28;20397;-68
2023/04/05 05:17:43;;;;;;;9.43;2.92;;;;;;;;;;5026332;28;20025;-68
2023/04/05 05:20:09;;;;;;;7.30;2.97;;;;;;;;;;5016869;28;20009;-68
2023/04/05 05:22:35;;;;;;;8.57;2.72;;;;;;;;;;5029286;28;20354;-68
2023/04/05 05:25:01;;;;;;;6.70;2.70;;;;;;;;;;5025856;28;20021;-67
2023/04/05 05:27:27;;;;;;;6.90;2.65;;;;;;;;;;5017307;28;20370;-67
2023/04/05 05:29:52;;;;;;;6.95;3.00;;;;;;;;;;5018731;28;20061;-67
2023/04/05 05:32:17;;;;;;;6.20;2.90;;;;;;;;;;5027773;28;20074;-67
2023/04/05 05:34:43;;;;;;;8.68;2.80;;;;;;;;;;5025433;28;20054;-64
2023/04/05 05:37:09;;;;;;;11.07;3.95;;;;;;;;;;5021987;28;20022;-68
2023/04/05 05:39:35;;;;;;;10.30;3.92;;;;;;;;;;5025856;28;20085;-67
2023/04/05 05:42:00;;;;;;;8.35;3.45;;;;;;;;;;5021843;28;20037;-68
2023/04/05 05:44:25;;;;;;;6.53;3.03;;;;;;;;;;5030135;28;20021;-68
2023/04/05 05:46:50;;;;;;;8.80;3.35;;;;;;;;;;5034970;28;20021;-67
2023/04/05 05:49:15;;;;;;;8.20;3.10;;;;;;;;;;5036114;28;20033;-66
2023/04/05 05:51:41;;;;;;;8.47;3.60;;;;;;;;;;5023215;28;20061;-66
2023/04/05 05:54:06;;;;;;;7.05;3.50;;;;;;;;;;5028859;28;20032;-67
2023/04/05 05:56:31;;;;;;;8.43;3.30;;;;;;;;;;5026234;28;20496;-67
2023/04/05 05:58:56;;;;;;;7.93;3.58;;;;;;;;;;5032024;28;20022;-67
2023/04/05 06:01:21;;;;;;;8.57;3.40;;;;;;;;;;5026456;28;20052;-67
2023/04/05 06:03:47;;;;;;;10.77;3.75;;;;;;;;;;5030906;28;20037;-67
2023/04/05 06:06:12;;;;;;;8.60;3.25;;;;;;;;;;5027375;28;20094;-67
2023/04/05 06:08:37;;;;;;;7.28;3.22;;;;;;;;;;5033334;28;20025;-67
2023/04/05 06:11:02;;;;;;;7.70;3.20;;;;;;;;;;5031852;28;20427;-67
2023/04/05 06:13:27;;;;;;;9.97;3.60;;;;;;;;;;5031710;28;20038;-68
2023/04/05 06:15:53;;;;;;;6.80;3.20;;;;;;;;;;5032049;28;20041;-68
2023/04/05 06:18:19;;;;;;;7.67;3.50;;;;;;;;;;5025678;28;20214;-67
2023/04/05 06:20:44;;;;;;;7.63;3.35;;;;;;;;;;5021741;28;21011;-68
2023/04/05 06:23:10;;;;;;;10.48;3.88;;;;;;;;;;5028977;28;20037;-67
2023/04/05 06:25:35;;;;;;;9.02;3.60;;;;;;;;;;5017550;28;20017;-67
2023/04/05 06:28:04;;;;;;;8.90;3.43;;;;;;;;;;5032839;28;20395;-67
2023/04/05 06:30:29;;;;;;;10.15;3.83;;;;;;;;;;5026989;28;20531;-68
2023/04/05 06:32:54;;;;;;;8.00;3.35;;;;;;;;;;5031197;28;20022;-68
2023/04/05 06:35:20;;;;;;;8.30;3.15;;;;;;;;;;5029338;28;20085;-67
2023/04/05 06:37:45;;;;;;;7.13;3.17;;;;;;;;;;5031980;28;20020;-67
2023/04/05 06:40:11;;;;;;;8.00;3.58;;;;;;;;;;5021494;28;20067;-67
2023/04/05 06:42:36;;;;;;;6.85;2.90;;;;;;;;;;5020648;28;20126;-67
2023/04/05 06:45:03;;;;;;;7.75;2.83;;;;;;;;;;5031062;28;20045;-67
2023/04/05 06:47:28;;;;;;;7.97;3.40;;;;;;;;;;5025361;28;20044;-67
2023/04/05 06:49:53;;;;;;;8.47;3.10;;;;;;;;;;5031049;28;20032;-66
2023/04/05 06:52:18;;;;;;;7.80;3.17;;;;;;;;;;5030514;28;20026;-67
2023/04/05 06:54:43;;;;;;;6.45;3.10;;;;;;;;;;5029460;28;20030;-67
2023/04/05 06:57:08;;;;;;;8.77;3.30;;;;;;;;;;5030017;28;20022;-67
2023/04/05 06:59:34;;;;;;;8.07;3.30;;;;;;;;;;5031696;28;20029;-66
2023/04/05 07:01:59;;;;;;;7.20;3.00;;;;;;;;;;5018045;28;20010;-65
2023/04/05 07:04:25;;;;;;;7.47;3.20;;;;;;;;;;5022824;28;20085;-66
2023/04/05 07:06:51;;;;;;;7.93;3.25;;;;;;;;;;5020932;28;20022;-65
2023/04/05 07:09:16;;;;;;;7.20;3.17;;;;;;;;;;5033001;28;20075;-65
2023/04/05 07:11:41;;;;;;;10.83;3.90;;;;;;;;;;5036926;28;20013;-67
2023/04/05 07:14:06;;;;;;;10.73;3.30;;;;;;;;;;5033483;28;20026;-66
2023/04/05 07:16:31;;;;;;;8.98;3.17;;;;;;;;;;5029563;28;20106;-66
2023/04/05 07:18:56;;;;;;;6.07;2.70;;;;;;;;;;5029201;28;20037;-67
2023/04/05 07:21:22;;;;;;;8.07;2.80;;;;;;;;;;5029567;28;20076;-65
2023/04/05 07:23:47;;;;;;;7.13;2.90;;;;;;;;;;5020010;28;20029;-68
2023/04/05 07:26:12;;;;;;;7.23;3.30;;;;;;;;;;5022253;28;20489;-65
2023/04/05 07:28:37;;;;;;;6.50;3.30;;;;;;;;;;5029722;28;20037;-66
2023/04/05 07:31:04;;;;;;;8.27;2.90;;;;;;;;;;5033322;28;20030;-66
2023/04/05 07:33:29;;;;;;;;;;;;;;;;;;5016502;28;20022;-66
2023/04/05 07:35:55;;;;;;;8.17;3.03;;;;;;;;;;5017337;28;20300;-67
2023/04/05 07:38:20;;;;;;;12.20;2.85;;;;;;;;;;5021695;28;20025;-66
2023/04/05 07:40:47;;;;;;;8.23;2.50;;;;;;;;;;5026828;28;20097;-67
2023/04/05 07:43:12;;;;;;;5.82;2.35;;;;;;;;;;5020917;28;20105;-68
2023/04/05 07:45:37;;;;;;;6.50;2.85;;;;;;;;;;5032772;28;20104;-67
2023/04/05 07:48:03;;;;;;;6.40;2.40;;;;;;;;;;5031755;28;20020;-66
2023/04/05 07:50:28;;;;;;;7.03;2.90;;;;;;;;;;5029001;28;20030;-68
2023/04/05 07:52:53;;;;;;;8.23;2.90;;;;;;;;;;5020479;28;20018;-67
2023/04/05 07:55:18;;;;;;;8.17;2.77;;;;;;;;;;5012586;28;20064;-68
2023/04/05 07:57:43;;;;;;;7.05;2.20;;;;;;;;;;5011867;28;20096;-68
2023/04/05 08:00:11;;;;;;;8.70;2.70;;;;;;;;;;5025744;28;20036;-68
2023/04/05 08:02:36;;;;;;;9.35;3.17;;;;;;;;;;5020136;28;20030;-67
2023/04/05 08:05:02;;;;;;;9.10;2.63;;;;;;;;;;5014626;28;21356;-67
2023/04/05 08:07:27;;;;;;;10.85;3.30;;;;;;;;;;5020973;28;20021;-67
2023/04/05 08:09:56;;;;;;;7.15;2.80;;;;;;;;;;5022635;28;20090;-67
2023/04/05 08:12:21;;;;;;;8.38;2.70;;;;;;;;;;5014479;28;20018;-67
2023/04/05 08:14:46;;;;;;;6.67;2.60;;;;;;;;;;5031771;28;20029;-66
2023/04/05 08:17:11;;;;;;;10.43;3.80;;;;;;;;;;5031344;28;20091;-67
2023/04/05 08:19:36;;;;;;;6.85;2.78;;;;;;;;;;5030707;28;20546;-66
2023/04/05 08:22:02;;;;;;;7.95;2.67;;;;;;;;;;5024169;28;20013;-65
2023/04/05 08:24:27;;;;;;;5.97;2.72;;;;;;;;;;5013419;28;20061;-65
2023/04/05 08:26:52;;;;;;;7.32;3.00;;;;;;;;;;5011691;28;20552;-68
2023/04/05 08:29:17;;;;;;;7.30;2.53;;;;;;;;;;5012961;28;20028;-66
2023/04/05 08:31:42;;;;;;;6.25;2.67;;;;;;;;;;5019121;28;20532;-65
2023/04/05 08:34:07;;;;;;;5.55;2.42;;;;;;;;;;5031694;28;20420;-68
2023/04/05 08:36:32;;;;;;;5.35;2.83;;;;;;;;;;5023310;28;20045;-67
2023/04/05 08:38:57;;;;;;;6.13;2.30;;;;;;;;;;5019817;28;20044;-67
2023/04/05 08:41:25;;;;;;;7.10;2.55;;;;;;;;;;5018751;28;20478;-67
2023/04/05 08:43:57;;;;;;;5.63;2.25;;;;;;;;;;5032034;28;20120;-67
2023/04/05 08:46:23;;;;;;;6.28;2.22;;;;;;;;;;5032949;28;20445;-67
2023/04/05 08:48:49;;;;;;;7.80;2.63;;;;;;;;;;5031529;28;20014;-67
2023/04/05 08:51:20;;;;;;;8.52;2.42;;;;;;;;;;5027315;28;20022;-66
2023/04/05 08:53:45;;;;;;;9.05;2.30;;;;;;;;;;5031527;28;20030;-67
2023/04/05 08:56:13;;;;;;;6.68;2.50;;;;;;;;;;5031284;28;20051;-67
2023/04/05 08:58:39;;;;;;;6.03;2.10;;;;;;;;;;5017807;28;20037;-66
2023/04/05 09:01:04;;;;;;;6.53;2.53;;;;;;;;;;5030314;28;20021;-66
2023/04/05 09:03:39;;;;;;;6.57;2.50;;;;;;;;;;5031018;28;20029;-68
2023/04/05 09:06:06;;;;;;;6.35;2.42;;;;;;;;;;5014883;28;20087;-68
2023/04/05 09:08:31;;;;;;;;;;;;;;;;;;5030019;28;20508;-65
2023/04/05 09:10:57;;;;;;;5.50;2.50;;;;;;;;;;5031005;28;20540;-68
2023/04/05 09:13:22;;;;;;;7.55;2.30;;;;;;;;;;5030215;28;20029;-66
2023/04/05 09:15:47;;;;;;;6.25;2.20;;;;;;;;;;5017861;28;20476;-67
2023/04/05 09:18:12;;;;;;;5.75;2.25;;;;;;;;;;5010560;28;20018;-67
2023/04/05 09:20:38;;;;;;;6.73;2.43;;;;;;;;;;5021370;28;20437;-67
2023/04/05 09:23:03;;;;;;;5.77;2.33;;;;;;;;;;5019145;28;20443;-67
2023/04/05 09:25:31;;;;;;;9.03;2.33;;;;;;;;;;5010096;28;20026;-66
2023/04/05 09:27:56;;;;;;;5.38;2.42;;;;;;;;;;5010573;28;20021;-67
2023/04/05 09:30:22;;;;;;;6.05;2.40;;;;;;;;;;5019883;28;20022;-67
2023/04/05 09:32:49;;;;;;;6.20;2.22;;;;;;;;;;5023409;28;20190;-68
2023/04/05 09:35:21;;;;;;;5.97;2.17;;;;;;;;;;5018320;28;20029;-67
2023/04/05 09:38:12;;;;;;;9.25;2.67;;;;;;;;;;5018555;28;20129;-68
2023/04/05 09:40:48;;;;;;;6.15;2.33;;;;;;;;;;5020071;28;20041;-66
2023/04/05 09:43:33;;;;;;;5.32;2.20;;;;;;;;;;5029027;28;20017;-67
2023/04/05 09:45:58;;;;;;;7.07;2.20;;;;;;;;;;5024083;28;20025;-67
2023/04/05 09:48:43;;;;;;;6.25;2.28;;;;;;;;;;5010372;28;20034;-68
2023/04/05 09:51:08;;;;;;;8.65;2.63;;;;;;;;;;5020708;28;20030;-66
2023/04/05 09:53:33;;;;;;;5.78;2.38;;;;;;;;;;5018768;28;20045;-67
2023/04/05 09:56:07;;;;;;;6.72;2.10;;;;;;;;;;5011069;28;20466;-65
2023/04/05 09:58:33;;;;;;;5.97;2.30;;;;;;;;;;5010227;28;20014;-67
2023/04/05 10:00:58;;;;;;;5.95;1.88;;;;;;;;;;5020139;28;20016;-67
2023/04/05 10:03:28;;;;;;;7.53;2.35;;;;;;;;;;5020253;28;20473;-67
2023/04/05 10:05:56;;;;;;;9.07;2.33;;;;;;;;;;5025966;28;20018;-68
2023/04/05 10:08:22;;;;;;;6.05;2.30;;;;;;;;;;5020250;28;20030;-67
2023/04/05 10:10:48;;;;;;;6.97;2.13;;;;;;;;;;5018437;28;20020;-67
2023/04/05 10:13:14;;;;;;;9.05;2.17;;;;;;;;;;5018745;28;20034;-67
2023/04/05 10:15:43;;;;;;;8.70;2.50;;;;;;;;;;5010552;28;20037;-67
2023/04/05 10:18:11;;;;;;;9.05;2.83;;;;;;;;;;5010386;28;20092;-68
2023/04/05 10:20:42;;;;;;;5.60;2.80;;;;;;;;;;5018484;28;20385;-67
2023/04/05 10:23:11;;;;;;;6.95;2.30;;;;;;;;;;5019078;28;20493;-67
2023/04/05 10:25:55;;;;;;;6.60;2.33;;;;;;;;;;5030565;28;20049;-66
2023/04/05 10:28:34;;;;;;;5.63;1.98;;;;;;;;;;5021059;28;20022;-67
2023/04/05 10:31:09;;;;;;;5.82;2.15;;;;;;;;;;5030627;28;20053;-67
2023/04/05 10:33:38;;;;;;;4.85;2.20;;;;;;;;;;5030362;28;20036;-67
2023/04/05 10:36:03;;;;;;;5.18;2.00;;;;;;;;;;5025106;28;20022;-69
2023/04/05 10:38:28;;;;;;;5.95;2.15;;;;;;;;;;5022468;28;20017;-67
2023/04/05 10:40:56;;;;;;;12.30;4.72;;;;;;;;;;5028293;28;20096;-67
2023/04/05 10:43:24;;;;;;;9.02;3.80;;;;;;;;;;5033480;28;20013;-67
2023/04/05 10:45:51;;;;;;;5.32;2.00;;;;;;;;;;5025948;28;20032;-67
2023/04/05 10:48:35;;;;;;;5.90;1.80;;;;;;;;;;5024094;28;20028;-65
2023/04/05 10:51:01;;;;;;;5.15;1.80;;;;;;;;;;5028419;28;20022;-65
2023/04/05 10:53:27;;;;;;;5.50;1.98;;;;;;;;;;5020595;28;20022;-66
2023/04/05 10:55:54;;;;;;;5.63;2.10;;;;;;;;;;5027931;28;20013;-66
2023/04/05 10:58:19;;;;;;;5.60;2.22;;;;;;;;;;5015562;28;20051;-66
2023/04/05 11:00:46;;;;;;;4.93;1.80;;;;;;;;;;5025206;28;20087;-67
2023/04/05 11:03:31;;;;;;;5.55;1.80;;;;;;;;;;5033322;28;20444;-66
2023/04/05 11:06:16;;;;;;;6.15;1.88;;;;;;;;;;5021660;28;20182;-67
2023/04/05 11:08:42;;;;;;;4.93;1.92;;;;;;;;;;5013338;28;20467;-68
2023/04/05 11:11:08;;;;;;;5.10;1.55;;;;;;;;;;5028319;28;20083;-65
2023/04/05 11:13:53;;;;;;;5.75;1.77;;;;;;;;;;5032481;28;20026;-66
2023/04/05 11:16:18;;;;;;;4.00;1.52;;;;;;;;;;5017699;28;20080;-67
2023/04/05 11:18:45;;;;;;;5.35;2.08;;;;;;;;;;5032264;28;20489;-67
2023/04/05 11:21:10;;;;;;;;;;;;;;;;;;5029165;28;20029;-67
2023/04/05 11:23:55;;;;;;;5.32;1.90;;;;;;;;;;5032656;28;20034;-68
2023/04/05 11:26:20;;;;;;;7.22;2.38;;;;;;;;;;5016402;28;20049;-67
2023/04/05 11:28:45;;;;;;;6.65;2.20;;;;;;;;;;5031691;28;20405;-67
2023/04/05 11:31:18;;;;;;;5.00;1.65;;;;;;;;;;5033318;28;20486;-66
2023/04/05 11:33:43;;;;;;;5.53;1.65;;;;;;;;;;5040062;28;20060;-67
2023/04/05 11:36:09;;;;;;;6.70;1.73;;;;;;;;;;5027600;28;20492;-68
2023/04/05 11:38:34;;;;;;;5.47;1.70;;;;;;;;;;5012674;28;20501;-67
2023/04/05 11:41:06;;;;;;;5.67;2.10;;;;;;;;;;5030951;28;20029;-67
2023/04/05 11:43:33;;;;;;;5.93;1.80;;;;;;;;;;5030801;28;20029;-67
2023/04/05 11:46:00;;;;;;;6.10;1.88;;;;;;;;;;5024375;28;20337;-67
2023/04/05 11:48:26;;;;;;;5.10;1.60;;;;;;;;;;5012552;28;20018;-67
2023/04/05 11:50:52;;;;;;;4.03;1.57;;;;;;;;;;5029848;28;20047;-67
2023/04/05 11:53:17;;;;;;;;;;;;;;;;;;5020285;28;20033;-67
2023/04/05 11:55:45;;;;;;;4.57;1.52;;;;;;;;;;5026880;28;19917;-67
2023/04/05 11:58:12;;;;;;;5.10;2.10;;;;;;;;;;5030939;28;20034;-66
2023/04/05 12:00:37;;;;;;;5.57;1.67;;;;;;;;;;5032207;28;20029;-67
2023/04/05 12:03:02;;;;;;;5.63;2.40;;;;;;;;;;5032636;28;20017;-66
2023/04/05 12:05:43;;;;;;;6.07;1.90;;;;;;;;;;5021437;28;20520;-67
2023/04/05 12:08:08;;;;;;;5.05;1.70;;;;;;;;;;5028285;28;20100;-67
2023/04/05 12:10:33;;;;;;;4.45;1.83;;;;;;;;;;5033309;28;20489;-67
2023/04/05 12:12:58;;;;;;;4.90;1.93;;;;;;;;;;5032463;28;20029;-67
2023/04/05 12:15:23;;;;;;;5.35;1.70;;;;;;;;;;5026061;28;20049;-67
2023/04/05 12:17:49;;;;;;;7.00;2.00;;;;;;;;;;5018124;28;20489;-68
2023/04/05 12:20:18;;;;;;;4.35;1.75;;;;;;;;;;5015482;28;20022;-65
2023/04/05 12:22:44;;;;;;;4.38;1.70;;;;;;;;;;5031553;28;20041;-66
2023/04/05 12:25:10;;;;;;;5.88;2.00;;;;;;;;;;5022707;28;20386;-66
2023/04/05 12:27:36;;;;;;;5.15;1.90;;;;;;;;;;5031215;28;20068;-66
2023/04/05 12:30:13;;;;;;;5.75;1.90;;;;;;;;;;5032035;28;20022;-67
2023/04/05 12:32:41;;;;;;;4.75;1.60;;;;;;;;;;5031362;28;20103;-68
2023/04/05 12:35:11;;;;;;;5.72;1.95;;;;;;;;;;5023127;28;20026;-67
2023/04/05 12:37:37;;;;;;;3.85;1.60;;;;;;;;;;5018830;28;20022;-68
2023/04/05 12:40:03;;;;;;;6.15;2.03;;;;;;;;;;5011895;28;20565;-66
2023/04/05 12:42:35;;;;;;;4.70;1.85;;;;;;;;;;5021366;28;20017;-66
2023/04/05 12:45:08;;;;;;;5.15;1.83;;;;;;;;;;5024099;28;20485;-67
2023/04/05 12:47:34;;;;;;;5.72;1.70;;;;;;;;;;5018294;28;20473;-67
2023/04/05 12:50:12;;;;;;;5.35;1.85;;;;;;;;;;5018886;28;20030;-67
2023/04/05 12:52:37;;;;;;;6.30;2.00;;;;;;;;;;5019514;28;20045;-67
2023/04/05 12:55:03;;;;;;;5.10;1.97;;;;;;;;;;5026792;28;20071;-68
2023/04/05 12:57:31;;;;;;;5.43;1.75;;;;;;;;;;5030259;28;20112;-67
2023/04/05 12:59:56;;;;;;;6.75;2.10;;;;;;;;;;5031196;28;20067;-67
2023/04/05 13:02:21;;;;;;;5.57;2.05;;;;;;;;;;5020687;28;20038;-67
2023/04/05 13:04:46;;;;;;;5.85;2.00;;;;;;;;;;5014039;28;20462;-67
2023/04/05 13:07:11;;;;;;;4.60;1.92;;;;;;;;;;5019883;28;20055;-68
2023/04/05 13:09:37;;;;;;;5.30;1.95;;;;;;;;;;5030211;28;20026;-67
2023/04/05 13:12:02;;;;;;;5.97;2.20;;;;;;;;;;5022508;28;20022;-67
2023/04/05 13:14:27;;;;;;;6.25;1.98;;;;;;;;;;5024260;28;20066;-65
2023/04/05 13:16:52;;;;;;;5.83;2.00;;;;;;;;;;5026180;28;20045;-67
2023/04/05 13:19:17;;;;;;;4.60;1.63;;;;;;;;;;5016077;28;20021;-65
2023/04/05 13:21:43;;;;;;;5.22;1.70;;;;;;;;;;5018735;28;20037;-68
2023/04/05 13:24:08;;;;;;;5.93;2.10;;;;;;;;;;5021241;28;20058;-67
2023/04/05 13:26:33;;;;;;;5.90;2.15;;;;;;;;;;5029582;28;20029;-66
2023/04/05 13:28:58;;;;;;;4.40;1.80;;;;;;;;;;5024900;28;20021;-67
2023/04/05 13:31:23;;;;;;;4.95;1.80;;;;;;;;;;5020164;28;20029;-67
2023/04/05 13:33:49;;;;;;;5.00;1.80;;;;;;;;;;5022219;28;20030;-67
2023/04/05 13:36:14;;;;;;;4.32;1.67;;;;;;;;;;5023360;28;20037;-67
2023/04/05 13:38:40;;;;;;;6.30;2.10;;;;;;;;;;5018804;28;20473;-67
2023/04/05 13:41:05;;;;;;;5.93;1.92;;;;;;;;;;5028379;28;20028;-67
2023/04/05 13:43:30;;;;;;;5.77;1.63;;;;;;;;;;5016820;28;20041;-67
2023/04/05 13:45:55;;;;;;;5.10;1.60;;;;;;;;;;5024803;28;20228;-67
2023/04/05 13:48:20;;;;;;;5.45;2.00;;;;;;;;;;5021986;28;20032;-67
2023/04/05 13:50:45;;;;;;;5.07;1.90;;;;;;;;;;5020330;28;20032;-66
2023/04/05 13:53:11;;;;;;;5.23;1.90;;;;;;;;;;5023996;28;20041;-65
2023/04/05 13:55:36;;;;;;;5.20;1.67;;;;;;;;;;5021602;28;20370;-66
2023/04/05 13:58:02;;;;;;;6.22;1.92;;;;;;;;;;5018617;28;20087;-66
2023/04/05 14:00:27;;;;;;;4.57;1.77;;;;;;;;;;5021133;28;20561;-65
2023/04/05 14:02:52;;;;;;;5.88;2.10;;;;;;;;;;5025294;28;20022;-66
2023/04/05 14:05:17;;;;;;;7.53;2.00;;;;;;;;;;5014436;28;20017;-65
2023/04/05 14:07:42;;;;;;;5.50;1.90;;;;;;;;;;5020312;28;20025;-65
2023/04/05 14:10:08;;;;;;;4.55;1.90;;;;;;;;;;5023829;28;20017;-66
2023/04/05 14:12:34;;;;;;;5.30;1.90;;;;;;;;;;5020504;28;20017;-65
2023/04/05 14:14:59;;;;;;;7.17;2.20;;;;;;;;;;5034670;28;20108;-65
2023/04/05 14:17:24;;;;;;;5.70;1.83;;;;;;;;;;5033986;28;20038;-66
2023/04/05 14:19:49;;;;;;;4.73;1.80;;;;;;;;;;5027974;28;20458;-66
2023/04/05 14:22:15;;;;;;;4.93;1.60;;;;;;;;;;5028070;28;20471;-66
2023/04/05 14:24:40;;;;;;;4.32;1.90;;;;;;;;;;5035910;28;20017;-67
2023/04/05 14:27:05;;;;;;;4.13;1.60;;;;;;;;;;5029858;28;20791;-67
2023/04/05 14:29:30;;;;;;;6.70;1.57;;;;;;;;;;5029921;28;20041;-67
2023/04/05 14:31:55;;;;;;;3.23;1.43;;;;;;;;;;5024506;28;20021;-66
2023/04/05 14:34:20;;;;;;;4.57;1.58;;;;;;;;;;5021584;28;20117;-68
2023/04/05 14:36:46;;;;;;;6.07;1.87;;;;;;;;;;5024453;28;20037;-65
2023/04/05 14:39:11;;;;;;;4.60;1.60;;;;;;;;;;5026493;28;20018;-67
2023/04/05 14:41:36;;;;;;;4.93;1.53;;;;;;;;;;5023429;28;20018;-66